createdAt,value
2022-12-26T00:00:51.124Z,86
2022-12-26T00:02:51.388Z,86
2022-12-26T00:04:55.119Z,86
2022-12-26T00:06:50.134Z,86
2022-12-26T00:08:50.764Z,86
2022-12-26T00:10:50.671Z,86
2022-12-26T00:12:50.205Z,86
2022-12-26T00:14:50.799Z,86
2022-12-26T00:16:51.476Z,86
2022-12-26T00:18:50.214Z,86
2022-12-26T00:20:51.015Z,86
2022-12-26T00:22:55.531Z,86
2022-12-26T00:24:50.284Z,86
2022-12-26T00:26:50.352Z,86
2022-12-26T00:28:51.079Z,86
2022-12-26T00:30:50.800Z,86
2022-12-26T00:32:50.524Z,85
2022-12-26T00:34:50.780Z,85
2022-12-26T00:36:50.765Z,85
2022-12-26T00:38:50.589Z,85
2022-12-26T00:40:50.388Z,85
2022-12-26T00:42:50.194Z,85
2022-12-26T00:44:51.094Z,85
2022-12-26T00:46:50.623Z,85
2022-12-26T00:48:50.349Z,85
2022-12-26T00:50:50.254Z,85
2022-12-26T00:52:51.047Z,85
2022-12-26T00:54:50.669Z,85
2022-12-26T00:56:50.735Z,85
2022-12-26T00:58:50.561Z,85
2022-12-26T01:00:50.456Z,85
2022-12-26T01:02:51.051Z,85
2022-12-26T01:04:50.364Z,85
2022-12-26T01:06:50.511Z,84
2022-12-26T01:08:50.216Z,84
2022-12-26T01:10:50.898Z,84
2022-12-26T01:12:50.628Z,84
2022-12-26T01:16:50.912Z,84
2022-12-26T01:18:50.666Z,84
2022-12-26T01:20:50.362Z,84
2022-12-26T01:22:50.847Z,84
2022-12-26T01:24:50.356Z,84
2022-12-26T01:26:50.579Z,84
2022-12-26T01:28:50.440Z,83
2022-12-26T01:30:50.392Z,83
2022-12-26T01:32:50.619Z,83
2022-12-26T01:34:51.020Z,83
2022-12-26T01:36:50.197Z,83
2022-12-26T01:38:51.039Z,83
2022-12-26T01:40:50.804Z,83
2022-12-26T01:42:50.720Z,83
2022-12-26T01:44:50.438Z,83
2022-12-26T01:46:50.459Z,83
2022-12-26T01:48:50.326Z,83
2022-12-26T01:50:50.865Z,83
2022-12-26T01:52:50.771Z,83
2022-12-26T01:54:50.561Z,83
2022-12-26T01:56:50.591Z,83
2022-12-26T01:58:50.416Z,83
2022-12-26T02:00:51.398Z,83
2022-12-26T02:02:50.971Z,83
2022-12-26T02:04:50.584Z,83
2022-12-26T02:06:50.659Z,83
2022-12-26T02:08:50.468Z,83
2022-12-26T02:10:50.264Z,83
2022-12-26T02:12:50.664Z,83
2022-12-26T02:14:50.260Z,83
2022-12-26T02:16:50.802Z,83
2022-12-26T02:18:50.491Z,83
2022-12-26T02:20:50.145Z,82
2022-12-26T02:22:50.901Z,82
2022-12-26T02:24:50.571Z,82
2022-12-26T02:26:50.594Z,82
2022-12-26T02:28:50.372Z,82
2022-12-26T02:30:50.178Z,82
2022-12-26T02:32:51.020Z,82
2022-12-26T02:34:50.252Z,82
2022-12-26T02:36:50.221Z,82
2022-12-26T02:38:50.839Z,82
2022-12-26T02:40:50.649Z,82
2022-12-26T02:42:50.490Z,82
2022-12-26T02:44:51.120Z,82
2022-12-26T02:46:51.094Z,82
2022-12-26T02:48:50.692Z,82
2022-12-26T02:50:50.312Z,82
2022-12-26T02:52:50.924Z,81
2022-12-26T02:54:50.573Z,81
2022-12-26T02:56:50.639Z,81
2022-12-26T02:58:50.193Z,81
2022-12-26T03:00:51.301Z,81
2022-12-26T03:02:51.807Z,81
2022-12-26T03:04:51.070Z,81
2022-12-26T03:06:51.160Z,81
2022-12-26T03:08:51.087Z,81
2022-12-26T03:10:50.669Z,81
2022-12-26T03:12:50.503Z,81
2022-12-26T03:14:50.170Z,81
2022-12-26T03:16:50.454Z,81
2022-12-26T03:19:01.356Z,81
2022-12-26T03:20:50.715Z,81
2022-12-26T03:22:50.398Z,80
2022-12-26T03:24:50.993Z,80
2022-12-26T03:26:51.066Z,80
2022-12-26T03:28:50.611Z,81
2022-12-26T03:30:51.374Z,81
2022-12-26T03:32:51.037Z,80
2022-12-26T03:34:50.236Z,80
2022-12-26T03:36:50.258Z,80
2022-12-26T03:38:50.871Z,80
2022-12-26T03:40:50.542Z,80
2022-12-26T03:42:50.367Z,80
2022-12-26T03:44:54.634Z,80
2022-12-26T03:46:50.804Z,80
2022-12-26T03:48:50.588Z,80
2022-12-26T03:50:50.388Z,80
2022-12-26T03:52:50.940Z,80
2022-12-26T03:54:50.601Z,80
2022-12-26T03:56:50.544Z,80
2022-12-26T03:58:50.202Z,80
2022-12-26T04:00:50.829Z,80
2022-12-26T04:02:50.464Z,79
2022-12-26T04:04:50.707Z,79
2022-12-26T04:06:50.668Z,79
2022-12-26T04:08:50.547Z,79
2022-12-26T04:10:50.359Z,79
2022-12-26T04:12:50.151Z,79
2022-12-26T04:14:50.955Z,79
2022-12-26T04:16:50.949Z,80
2022-12-26T04:18:50.808Z,80
2022-12-26T04:20:50.412Z,80
2022-12-26T04:22:51.008Z,80
2022-12-26T04:24:50.606Z,80
2022-12-26T04:26:50.678Z,80
2022-12-26T04:28:50.536Z,79
2022-12-26T04:30:50.447Z,79
2022-12-26T04:32:50.276Z,79
2022-12-26T04:34:50.481Z,79
2022-12-26T04:36:50.327Z,79
2022-12-26T04:38:50.114Z,79
2022-12-26T04:40:50.735Z,79
2022-12-26T04:42:50.627Z,79
2022-12-26T04:44:50.178Z,79
2022-12-26T04:46:51.300Z,79
2022-12-26T04:48:50.964Z,79
2022-12-26T04:50:50.670Z,79
2022-12-26T04:52:50.493Z,79
2022-12-26T04:54:52.470Z,79
2022-12-26T04:56:50.520Z,79
2022-12-26T04:58:51.108Z,79
2022-12-26T05:00:50.850Z,79
2022-12-26T05:02:51.764Z,79
2022-12-26T05:04:50.937Z,79
2022-12-26T05:06:51.190Z,79
2022-12-26T05:08:50.175Z,79
2022-12-26T05:10:50.898Z,79
2022-12-26T05:12:50.800Z,79
2022-12-26T05:14:50.361Z,79
2022-12-26T05:16:50.464Z,79
2022-12-26T05:18:50.515Z,79
2022-12-26T05:20:50.270Z,79
2022-12-26T05:22:51.034Z,79
2022-12-26T05:24:50.860Z,79
2022-12-26T05:26:50.983Z,79
2022-12-26T05:28:50.665Z,79
2022-12-26T05:30:50.646Z,79
2022-12-26T05:32:50.499Z,79
2022-12-26T05:34:50.707Z,79
2022-12-26T05:36:50.784Z,79
2022-12-26T05:38:50.580Z,79
2022-12-26T05:40:50.354Z,79
2022-12-26T05:42:50.937Z,79
2022-12-26T05:44:50.831Z,79
2022-12-26T05:46:51.157Z,79
2022-12-26T05:48:51.080Z,79
2022-12-26T05:50:50.875Z,79
2022-12-26T05:52:50.636Z,79
2022-12-26T05:54:50.271Z,79
2022-12-26T05:56:50.361Z,79
2022-12-26T05:58:50.868Z,79
2022-12-26T06:00:50.518Z,78
2022-12-26T06:02:50.946Z,78
2022-12-26T06:04:50.337Z,79
2022-12-26T06:06:50.375Z,79
2022-12-26T06:08:51.030Z,79
2022-12-26T06:10:50.825Z,79
2022-12-26T06:12:50.397Z,79
2022-12-26T06:14:50.232Z,79
2022-12-26T06:16:50.666Z,79
2022-12-26T06:18:50.447Z,79
2022-12-26T06:20:51.047Z,79
2022-12-26T06:22:50.687Z,78
2022-12-26T06:24:50.495Z,78
2022-12-26T06:26:50.612Z,78
2022-12-26T06:28:50.332Z,78
2022-12-26T06:30:50.147Z,79
2022-12-26T06:32:50.709Z,78
2022-12-26T06:34:50.991Z,78
2022-12-26T06:36:50.910Z,77
2022-12-26T06:38:50.626Z,77
2022-12-26T06:40:50.206Z,78
2022-12-26T06:42:50.813Z,77
2022-12-26T06:44:50.433Z,78
2022-12-26T06:46:50.799Z,78
2022-12-26T06:48:50.449Z,78
2022-12-26T06:50:51.108Z,78
2022-12-26T06:52:50.808Z,78
2022-12-26T06:54:50.538Z,78
2022-12-26T06:56:50.735Z,78
2022-12-26T06:58:50.357Z,78
2022-12-26T07:00:50.450Z,78
2022-12-26T07:02:51.354Z,78
2022-12-26T07:04:50.573Z,78
2022-12-26T07:06:50.645Z,78
2022-12-26T07:08:50.434Z,78
2022-12-26T07:10:51.010Z,78
2022-12-26T07:12:50.712Z,78
2022-12-26T07:14:50.444Z,78
2022-12-26T07:16:50.884Z,78
2022-12-26T07:18:50.467Z,78
2022-12-26T07:20:51.154Z,79
2022-12-26T07:22:50.752Z,79
2022-12-26T07:24:50.352Z,79
2022-12-26T07:26:50.470Z,79
2022-12-26T07:28:50.190Z,79
2022-12-26T07:30:51.056Z,79
2022-12-26T07:32:50.748Z,79
2022-12-26T07:34:50.856Z,79
2022-12-26T07:36:50.811Z,79
2022-12-26T07:38:50.449Z,79
2022-12-26T07:40:51.082Z,79
2022-12-26T07:42:50.651Z,79
2022-12-26T07:44:50.285Z,79
2022-12-26T07:46:50.335Z,79
2022-12-26T07:48:51.142Z,79
2022-12-26T07:50:50.896Z,79
2022-12-26T07:52:50.550Z,79
2022-12-26T07:54:50.150Z,78
2022-12-26T07:56:50.171Z,78
2022-12-26T07:58:51.006Z,78
2022-12-26T08:00:51.191Z,78
2022-12-26T08:02:51.724Z,78
2022-12-26T08:04:50.896Z,78
2022-12-26T08:06:50.871Z,78
2022-12-26T08:08:52.205Z,78
2022-12-26T08:10:50.884Z,78
2022-12-26T08:12:50.696Z,78
2022-12-26T08:14:50.256Z,78
2022-12-26T08:16:54.610Z,78
2022-12-26T08:18:50.293Z,78
2022-12-26T08:20:50.934Z,78
2022-12-26T08:22:50.768Z,78
2022-12-26T08:24:50.897Z,77
2022-12-26T08:26:50.792Z,77
2022-12-26T08:28:50.635Z,77
2022-12-26T08:30:50.288Z,77
2022-12-26T08:32:51.018Z,77
2022-12-26T08:34:50.469Z,77
2022-12-26T08:36:50.497Z,77
2022-12-26T08:38:51.077Z,77
2022-12-26T08:40:50.878Z,77
2022-12-26T08:43:45.273Z,77
2022-12-26T08:44:50.546Z,77
2022-12-26T08:46:50.604Z,77
2022-12-26T08:48:50.229Z,77
2022-12-26T08:50:50.917Z,77
2022-12-26T08:52:50.769Z,78
2022-12-26T08:54:50.530Z,77
2022-12-26T08:56:50.414Z,77
2022-12-26T08:58:50.993Z,77
2022-12-26T09:00:57.093Z,77
2022-12-26T09:02:51.731Z,77
2022-12-26T09:04:50.871Z,77
2022-12-26T09:06:51.110Z,77
2022-12-26T09:08:50.898Z,77
2022-12-26T09:10:50.485Z,78
2022-12-26T09:12:51.078Z,78
2022-12-26T09:14:50.971Z,78
2022-12-26T09:16:52.144Z,77
2022-12-26T09:18:50.752Z,77
2022-12-26T09:20:50.564Z,77
2022-12-26T09:22:50.150Z,77
2022-12-26T09:24:50.987Z,77
2022-12-26T09:26:50.764Z,77
2022-12-26T09:28:50.457Z,77
2022-12-26T09:30:50.381Z,77
2022-12-26T09:32:51.067Z,77
2022-12-26T09:34:50.507Z,77
2022-12-26T09:36:50.693Z,77
2022-12-26T09:38:50.500Z,77
2022-12-26T09:40:50.317Z,77
2022-12-26T09:42:50.947Z,77
2022-12-26T09:44:50.750Z,77
2022-12-26T09:46:51.009Z,77
2022-12-26T09:48:50.800Z,77
2022-12-26T09:50:50.381Z,77
2022-12-26T09:52:51.190Z,77
2022-12-26T09:54:50.832Z,77
2022-12-26T09:57:14.976Z,77
2022-12-26T09:58:50.441Z,77
2022-12-26T10:00:51.057Z,77
2022-12-26T10:02:50.916Z,77
2022-12-26T10:04:50.412Z,77
2022-12-26T10:06:50.527Z,78
2022-12-26T10:08:50.128Z,78
2022-12-26T10:10:50.897Z,78
2022-12-26T10:12:50.561Z,78
2022-12-26T10:14:50.360Z,78
2022-12-26T10:16:50.359Z,78
2022-12-26T10:18:50.240Z,78
2022-12-26T10:20:50.975Z,78
2022-12-26T10:22:50.652Z,78
2022-12-26T10:24:52.089Z,78
2022-12-26T10:26:50.304Z,78
2022-12-26T10:28:51.052Z,79
2022-12-26T10:30:50.878Z,79
2022-12-26T10:32:50.709Z,79
2022-12-26T10:34:50.892Z,79
2022-12-26T10:36:50.915Z,79
2022-12-26T10:38:50.530Z,79
2022-12-26T10:40:50.396Z,79
2022-12-26T10:42:50.132Z,79
2022-12-26T10:44:50.820Z,79
2022-12-26T10:46:51.198Z,79
2022-12-26T10:48:50.842Z,79
2022-12-26T10:50:50.459Z,79
2022-12-26T10:52:50.485Z,79
2022-12-26T10:54:50.253Z,80
2022-12-26T10:56:50.268Z,80
2022-12-26T10:58:51.084Z,80
2022-12-26T11:00:50.883Z,80
2022-12-26T11:02:51.567Z,80
2022-12-26T11:05:57.299Z,80
2022-12-26T11:06:50.878Z,80
2022-12-26T11:08:50.850Z,81
2022-12-26T11:10:50.555Z,81
2022-12-26T11:12:50.172Z,81
2022-12-26T11:14:50.802Z,81
2022-12-26T11:16:50.822Z,81
2022-12-26T11:18:50.679Z,81
2022-12-26T11:20:50.419Z,81
2022-12-26T11:22:51.084Z,81
2022-12-26T11:24:50.840Z,81
2022-12-26T11:26:50.883Z,81
2022-12-26T11:28:50.483Z,81
2022-12-26T11:30:50.096Z,81
2022-12-26T11:32:50.923Z,81
2022-12-26T11:34:50.161Z,81
2022-12-26T11:36:50.355Z,81
2022-12-26T11:38:50.233Z,81
2022-12-26T11:40:51.010Z,81
2022-12-26T11:42:50.736Z,81
2022-12-26T11:44:50.440Z,81
2022-12-26T11:46:50.792Z,81
2022-12-26T11:48:50.537Z,81
2022-12-26T11:50:50.250Z,81
2022-12-26T11:52:51.040Z,81
2022-12-26T11:54:50.998Z,81
2022-12-26T11:56:51.058Z,81
2022-12-26T11:58:50.687Z,81
2022-12-26T12:00:50.396Z,81
2022-12-26T12:02:50.952Z,81
2022-12-26T12:04:50.696Z,81
2022-12-26T12:06:50.756Z,81
2022-12-26T12:08:50.615Z,81
2022-12-26T12:10:50.422Z,81
2022-12-26T12:12:50.235Z,81
2022-12-26T12:14:56.836Z,81
2022-12-26T12:16:51.127Z,81
2022-12-26T12:18:50.861Z,81
2022-12-26T12:20:52.706Z,81
2022-12-26T12:22:50.519Z,81
2022-12-26T12:24:50.290Z,81
2022-12-26T12:27:05.886Z,81
2022-12-26T12:28:50.540Z,81
2022-12-26T12:30:50.359Z,81
2022-12-26T12:32:57.881Z,81
2022-12-26T12:34:50.249Z,81
2022-12-26T12:36:50.356Z,81
2022-12-26T12:38:57.288Z,81
2022-12-26T12:40:51.017Z,81
2022-12-26T12:42:50.814Z,81
2022-12-26T12:44:57.424Z,81
2022-12-26T12:46:50.504Z,81
2022-12-26T12:48:50.322Z,81
2022-12-26T12:50:57.384Z,81
2022-12-26T12:52:51.182Z,81
2022-12-26T12:54:50.965Z,81
2022-12-26T12:56:50.907Z,81
2022-12-26T12:58:50.780Z,81
2022-12-26T13:00:51.115Z,81
2022-12-26T13:02:51.382Z,81
2022-12-26T13:04:50.579Z,81
2022-12-26T13:06:50.612Z,81
2022-12-26T13:08:50.432Z,80
2022-12-26T13:10:50.229Z,80
2022-12-26T13:12:51.071Z,80
2022-12-26T13:14:50.893Z,80
2022-12-26T13:16:51.389Z,80
2022-12-26T13:18:51.082Z,80
2022-12-26T13:20:50.706Z,80
2022-12-26T13:22:50.523Z,80
2022-12-26T13:24:50.131Z,80
2022-12-26T13:26:50.167Z,80
2022-12-26T13:28:50.776Z,80
2022-12-26T13:30:50.380Z,80
2022-12-26T13:32:50.954Z,80
2022-12-26T13:34:51.035Z,80
2022-12-26T13:36:50.876Z,80
2022-12-26T13:38:55.040Z,80
2022-12-26T13:40:50.622Z,80
2022-12-26T13:42:50.296Z,80
2022-12-26T13:44:54.436Z,80
2022-12-26T13:46:50.546Z,80
2022-12-26T13:48:50.291Z,80
2022-12-26T13:50:57.157Z,80
2022-12-26T13:52:50.959Z,80
2022-12-26T13:54:50.732Z,80
2022-12-26T13:56:50.812Z,80
2022-12-26T13:58:50.616Z,80
2022-12-26T14:00:50.624Z,80
2022-12-26T14:03:21.908Z,80
2022-12-26T14:04:50.362Z,80
2022-12-26T14:06:50.484Z,80
2022-12-26T14:08:55.917Z,80
2022-12-26T14:10:50.665Z,80
2022-12-26T14:12:50.252Z,80
2022-12-26T14:14:55.308Z,80
2022-12-26T14:16:50.788Z,80
2022-12-26T14:18:50.293Z,80
2022-12-26T14:20:50.946Z,80
2022-12-26T14:22:50.615Z,80
2022-12-26T14:24:50.479Z,80
2022-12-26T14:26:50.193Z,80
2022-12-26T14:28:50.792Z,80
2022-12-26T14:30:50.778Z,80
2022-12-26T14:32:50.445Z,80
2022-12-26T14:34:50.873Z,80
2022-12-26T14:36:50.891Z,80
2022-12-26T14:38:50.469Z,80
2022-12-26T14:40:51.060Z,80
2022-12-26T14:42:50.774Z,80
2022-12-26T14:44:50.348Z,80
2022-12-26T14:46:50.591Z,80
2022-12-26T14:48:50.347Z,80
2022-12-26T14:50:50.154Z,80
2022-12-26T14:52:50.764Z,81
2022-12-26T14:54:52.179Z,81
2022-12-26T14:56:50.645Z,81
2022-12-26T14:58:50.420Z,81
2022-12-26T15:00:50.908Z,81
2022-12-26T15:02:51.586Z,81
2022-12-26T15:04:50.861Z,81
2022-12-26T15:06:51.092Z,81
2022-12-26T15:08:50.715Z,81
2022-12-26T15:10:50.497Z,81
2022-12-26T15:12:59.774Z,81
2022-12-26T15:14:50.575Z,81
2022-12-26T15:16:50.755Z,81
2022-12-26T15:18:50.369Z,81
2022-12-26T15:20:50.964Z,81
2022-12-26T15:22:50.594Z,81
2022-12-26T15:25:21.275Z,81
2022-12-26T15:26:50.530Z,81
2022-12-26T15:28:50.248Z,81
2022-12-26T15:30:51.370Z,81
2022-12-26T15:32:51.048Z,81
2022-12-26T15:34:50.271Z,81
2022-12-26T15:36:50.289Z,81
2022-12-26T15:38:50.881Z,81
2022-12-26T15:40:50.500Z,81
2022-12-26T15:42:50.218Z,81
2022-12-26T15:44:50.786Z,82
2022-12-26T15:46:50.770Z,82
2022-12-26T15:48:50.375Z,82
2022-12-26T15:50:51.023Z,82
2022-12-26T15:52:50.573Z,82
2022-12-26T15:54:50.226Z,82
2022-12-26T15:56:50.465Z,82
2022-12-26T15:58:51.051Z,82
2022-12-26T16:00:50.682Z,82
2022-12-26T16:02:50.881Z,82
2022-12-26T16:04:50.916Z,82
2022-12-26T16:06:50.099Z,82
2022-12-26T16:08:50.949Z,82
2022-12-26T16:10:56.402Z,82
2022-12-26T16:12:50.161Z,82
2022-12-26T16:14:50.955Z,82
2022-12-26T16:16:51.064Z,82
2022-12-26T16:18:50.749Z,82
2022-12-26T16:20:50.419Z,82
2022-12-26T16:22:50.239Z,82
2022-12-26T16:24:51.032Z,82
2022-12-26T16:26:51.009Z,82
2022-12-26T16:28:50.684Z,82
2022-12-26T16:30:50.509Z,82
2022-12-26T16:32:50.321Z,82
2022-12-26T16:34:50.532Z,82
2022-12-26T16:36:50.546Z,82
2022-12-26T16:38:50.394Z,82
2022-12-26T16:40:50.165Z,82
2022-12-26T16:42:50.713Z,82
2022-12-26T16:44:50.382Z,82
2022-12-26T16:46:51.072Z,82
2022-12-26T16:48:50.787Z,82
2022-12-26T16:50:50.481Z,82
2022-12-26T16:52:50.252Z,82
2022-12-26T16:54:50.827Z,82
2022-12-26T16:56:50.892Z,82
2022-12-26T16:58:50.699Z,82
2022-12-26T17:00:50.520Z,82
2022-12-26T17:02:50.970Z,82
2022-12-26T17:04:59.085Z,82
2022-12-26T17:06:50.133Z,81
2022-12-26T17:08:50.813Z,81
2022-12-26T17:10:50.571Z,81
2022-12-26T17:12:50.218Z,81
2022-12-26T17:14:51.012Z,82
2022-12-26T17:16:50.789Z,82
2022-12-26T17:18:50.682Z,82
2022-12-26T17:20:50.440Z,82
2022-12-26T17:22:50.277Z,82
2022-12-26T17:24:51.375Z,82
2022-12-26T17:26:50.480Z,82
2022-12-26T17:28:50.334Z,82
2022-12-26T17:30:50.112Z,82
2022-12-26T17:32:50.732Z,82
2022-12-26T17:34:50.160Z,82
2022-12-26T17:37:20.645Z,82
2022-12-26T17:38:50.854Z,82
2022-12-26T17:40:50.662Z,82
2022-12-26T17:42:50.417Z,82
2022-12-26T17:44:50.258Z,82
2022-12-26T17:46:50.657Z,82
2022-12-26T17:48:50.226Z,82
2022-12-26T17:50:50.847Z,82
2022-12-26T17:52:50.855Z,82
2022-12-26T17:54:50.452Z,82
2022-12-26T17:56:50.472Z,82
2022-12-26T17:58:50.294Z,82
2022-12-26T18:00:51.228Z,82
2022-12-26T18:02:51.756Z,82
2022-12-26T18:04:51.070Z,82
2022-12-26T18:06:50.202Z,82
2022-12-26T18:08:51.108Z,82
2022-12-26T18:10:50.860Z,82
2022-12-26T18:12:50.670Z,82
2022-12-26T18:14:50.205Z,82
2022-12-26T18:16:51.116Z,82
2022-12-26T18:18:50.855Z,82
2022-12-26T18:20:50.575Z,82
2022-12-26T18:22:50.487Z,82
2022-12-26T18:24:50.125Z,82
2022-12-26T18:26:50.176Z,82
2022-12-26T18:28:50.808Z,82
2022-12-26T18:30:50.584Z,82
2022-12-26T18:32:50.262Z,82
2022-12-26T18:34:50.426Z,82
2022-12-26T18:36:50.348Z,82
2022-12-26T18:38:50.977Z,82
2022-12-26T18:40:50.639Z,82
2022-12-26T18:42:50.292Z,82
2022-12-26T18:44:51.055Z,82
2022-12-26T18:46:50.841Z,82
2022-12-26T18:48:50.969Z,82
2022-12-26T18:50:50.809Z,82
2022-12-26T18:52:54.754Z,82
2022-12-26T18:54:50.379Z,82
2022-12-26T18:56:50.311Z,82
2022-12-26T18:58:58.776Z,81
2022-12-26T19:00:50.559Z,81
2022-12-26T19:02:50.191Z,81
2022-12-26T19:04:50.187Z,81
2022-12-26T19:06:50.234Z,82
2022-12-26T19:08:50.850Z,82
2022-12-26T19:10:50.667Z,82
2022-12-26T19:12:50.311Z,82
2022-12-26T19:14:50.976Z,83
2022-12-26T19:16:51.383Z,83
2022-12-26T19:18:51.085Z,84
2022-12-26T19:20:50.839Z,84
2022-12-26T19:22:50.610Z,84
2022-12-26T19:24:50.484Z,84
2022-12-26T19:26:50.383Z,84
2022-12-26T19:28:50.973Z,84
2022-12-26T19:30:50.594Z,84
2022-12-26T19:32:50.191Z,85
2022-12-26T19:34:50.489Z,85
2022-12-26T19:36:50.443Z,85
2022-12-26T19:38:51.094Z,85
2022-12-26T19:40:50.647Z,86
2022-12-26T19:42:50.308Z,86
2022-12-26T19:44:50.852Z,86
2022-12-26T19:47:13.291Z,86
2022-12-26T19:48:50.450Z,86
2022-12-26T19:50:50.208Z,86
2022-12-26T19:52:50.970Z,86
2022-12-26T19:54:50.758Z,86
2022-12-26T19:56:50.923Z,86
2022-12-26T19:58:57.576Z,86
2022-12-26T20:00:50.809Z,86
2022-12-26T20:02:51.037Z,86
2022-12-26T20:04:50.543Z,86
2022-12-26T20:06:50.542Z,86
2022-12-26T20:08:50.263Z,86
2022-12-26T20:10:50.187Z,86
2022-12-26T20:12:50.904Z,86
2022-12-26T20:14:50.786Z,86
2022-12-26T20:17:09.315Z,86
2022-12-26T20:18:50.120Z,86
2022-12-26T20:20:50.811Z,86
2022-12-26T20:22:53.956Z,86
2022-12-26T20:24:50.648Z,86
2022-12-26T20:26:50.799Z,86
2022-12-26T20:28:50.551Z,85
2022-12-26T20:30:50.478Z,85
2022-12-26T20:32:51.061Z,85
2022-12-26T20:34:50.378Z,85
2022-12-26T20:36:50.517Z,85
2022-12-26T20:38:50.272Z,85
2022-12-26T20:40:51.021Z,85
2022-12-26T20:42:50.751Z,85
2022-12-26T20:44:50.337Z,85
2022-12-26T20:46:50.397Z,85
2022-12-26T20:48:50.931Z,85
2022-12-26T20:50:50.541Z,86
2022-12-26T20:52:50.191Z,86
2022-12-26T20:54:50.885Z,86
2022-12-26T20:56:51.045Z,86
2022-12-26T20:58:50.598Z,86
2022-12-26T21:00:50.363Z,86
2022-12-26T21:02:52.201Z,86
2022-12-26T21:04:50.485Z,86
2022-12-26T21:06:50.929Z,86
2022-12-26T21:08:50.586Z,86
2022-12-26T21:10:51.153Z,86
2022-12-26T21:12:50.691Z,86
2022-12-26T21:14:50.455Z,86
2022-12-26T21:16:50.479Z,86
2022-12-26T21:18:50.132Z,86
2022-12-26T21:20:50.748Z,86
2022-12-26T21:22:50.438Z,86
2022-12-26T21:24:50.999Z,86
2022-12-26T21:26:51.017Z,86
2022-12-26T21:28:50.774Z,86
2022-12-26T21:30:51.045Z,86
2022-12-26T21:32:50.639Z,86
2022-12-26T21:34:50.929Z,86
2022-12-26T21:36:50.995Z,86
2022-12-26T21:38:50.851Z,85
2022-12-26T21:40:50.644Z,85
2022-12-26T21:42:50.420Z,85
2022-12-26T21:44:50.931Z,85
2022-12-26T21:46:51.280Z,85
2022-12-26T21:48:50.978Z,84
2022-12-26T21:50:50.612Z,84
2022-12-26T21:52:50.283Z,84
2022-12-26T21:54:51.036Z,84
2022-12-26T21:56:51.039Z,84
2022-12-26T21:58:50.873Z,84
2022-12-26T22:00:50.731Z,84
2022-12-26T22:02:51.425Z,84
2022-12-26T22:04:50.536Z,84
2022-12-26T22:06:50.495Z,84
2022-12-26T22:08:50.118Z,84
2022-12-26T22:10:50.741Z,84
2022-12-26T22:12:50.578Z,84
2022-12-26T22:14:50.145Z,83
2022-12-26T22:16:50.175Z,83
2022-12-26T22:18:50.839Z,83
2022-12-26T22:20:50.466Z,83
2022-12-26T22:22:50.259Z,83
2022-12-26T22:24:51.014Z,83
2022-12-26T22:26:50.827Z,83
2022-12-26T22:28:50.493Z,83
2022-12-26T22:30:50.577Z,83
2022-12-26T22:32:50.312Z,83
2022-12-26T22:34:50.292Z,83
2022-12-26T22:36:50.357Z,83
2022-12-26T22:38:50.233Z,83
2022-12-26T22:40:50.951Z,83
2022-12-26T22:42:50.832Z,83
2022-12-26T22:44:50.557Z,83
2022-12-26T22:46:50.960Z,83
2022-12-26T22:48:50.621Z,83
2022-12-26T22:50:50.253Z,83
2022-12-26T22:52:50.857Z,83
2022-12-26T22:54:50.720Z,83
2022-12-26T22:56:50.883Z,83
2022-12-26T22:58:50.537Z,83
2022-12-26T23:00:50.361Z,83
2022-12-26T23:02:50.740Z,83
2022-12-26T23:04:50.974Z,83
2022-12-26T23:06:50.928Z,83
2022-12-26T23:08:50.603Z,83
2022-12-26T23:10:50.160Z,83
2022-12-26T23:12:50.978Z,82
2022-12-26T23:14:50.567Z,81
2022-12-26T23:16:50.654Z,81
2022-12-26T23:18:50.253Z,81
2022-12-26T23:20:51.062Z,80
2022-12-26T23:22:50.655Z,80
2022-12-26T23:24:50.297Z,80
2022-12-26T23:26:50.363Z,79
2022-12-26T23:28:51.083Z,79
2022-12-26T23:30:50.587Z,79
2022-12-26T23:32:50.340Z,78
2022-12-26T23:34:50.319Z,77
2022-12-26T23:36:50.365Z,77
2022-12-26T23:38:51.051Z,76
2022-12-26T23:40:50.819Z,77
2022-12-26T23:42:50.453Z,77
2022-12-26T23:44:50.248Z,77
2022-12-26T23:46:51.051Z,77
2022-12-26T23:48:50.858Z,77
2022-12-26T23:50:50.460Z,76
2022-12-26T23:52:51.097Z,76
2022-12-26T23:54:50.678Z,75
2022-12-26T23:56:50.878Z,75
2022-12-26T23:58:50.540Z,75
